createdAt,value
2023-05-02T00:01:05.159Z,2.90
2023-05-02T00:04:08.318Z,2.90
2023-05-02T00:07:11.596Z,3.17
2023-05-02T00:10:14.364Z,3.40
2023-05-02T00:13:17.151Z,3.08
2023-05-02T00:16:19.821Z,2.80
2023-05-02T00:19:23.009Z,2.90
2023-05-02T00:22:25.681Z,3.20
2023-05-02T00:25:28.482Z,3.30
2023-05-02T00:28:32.107Z,2.97
2023-05-02T00:31:35.976Z,3.30
2023-05-02T00:34:38.756Z,3.05
2023-05-02T00:37:41.359Z,3.38
2023-05-02T00:40:49.088Z,2.77
2023-05-02T00:43:51.750Z,3.05
2023-05-02T00:46:55.753Z,3.28
2023-05-02T00:49:59.325Z,3.17
2023-05-02T00:53:03.879Z,3.30
2023-05-02T00:56:06.944Z,3.00
2023-05-02T00:59:11.450Z,3.20
2023-05-02T01:02:32.306Z,3.13
2023-05-02T01:05:52.354Z,3.20
2023-05-02T01:09:31.447Z,3.40
2023-05-02T01:12:55.016Z,3.33
2023-05-02T01:15:59.814Z,3.40
2023-05-02T01:19:07.041Z,2.75
2023-05-02T01:22:11.525Z,2.63
2023-05-02T01:25:17.029Z,3.35
2023-05-02T01:28:59.385Z,3.40
2023-05-02T01:32:03.287Z,2.95
2023-05-02T01:35:07.786Z,3.17
2023-05-02T01:38:15.380Z,3.10
2023-05-02T01:41:21.712Z,3.58
2023-05-02T01:44:25.567Z,3.03
2023-05-02T01:47:32.694Z,3.30
2023-05-02T01:50:37.706Z,2.95
2023-05-02T01:53:40.962Z,3.00
2023-05-02T01:56:44.593Z,3.25
2023-05-02T01:59:49.566Z,3.00
2023-05-02T02:02:54.008Z,3.10
2023-05-02T02:05:58.550Z,2.97
2023-05-02T02:09:01.837Z,3.08
2023-05-02T02:12:26.177Z,3.25
2023-05-02T02:15:34.659Z,2.97
2023-05-02T02:18:39.063Z,3.50
2023-05-02T02:21:48.236Z,3.05
2023-05-02T02:24:54.415Z,3.30
2023-05-02T02:27:58.250Z,3.83
2023-05-02T02:31:01.011Z,3.10
2023-05-02T02:34:03.945Z,3.38
2023-05-02T02:37:16.830Z,3.45
2023-05-02T02:40:47.964Z,2.90
2023-05-02T02:43:59.719Z,2.97
2023-05-02T02:47:26.481Z,3.00
2023-05-02T02:50:54.840Z,3.15
2023-05-02T02:54:26.396Z,3.53
2023-05-02T02:57:45.376Z,3.00
2023-05-02T03:00:49.881Z,3.42
2023-05-02T03:03:54.882Z,3.03
2023-05-02T03:06:57.657Z,2.92
2023-05-02T03:10:13.878Z,3.25
2023-05-02T03:13:16.833Z,3.10
2023-05-02T03:16:34.172Z,3.08
2023-05-02T03:19:37.693Z,2.87
2023-05-02T03:22:41.574Z,3.25
2023-05-02T03:25:44.294Z,3.17
2023-05-02T03:28:51.607Z,2.97
2023-05-02T03:32:00.300Z,2.90
2023-05-02T03:35:03.250Z,2.87
2023-05-02T03:38:12.840Z,3.30
2023-05-02T03:41:15.657Z,3.03
2023-05-02T03:44:19.350Z,3.05
2023-05-02T03:47:22.633Z,3.30
2023-05-02T03:50:25.275Z,3.00
2023-05-02T03:53:31.662Z,3.00
2023-05-02T03:56:34.908Z,2.90
2023-05-02T03:59:48.866Z,3.17
2023-05-02T04:03:03.945Z,3.20
2023-05-02T04:06:09.211Z,2.87
2023-05-02T04:09:12.587Z,3.05
2023-05-02T04:12:22.480Z,2.92
2023-05-02T04:15:27.864Z,3.00
2023-05-02T04:18:31.781Z,3.30
2023-05-02T04:21:37.513Z,3.00
2023-05-02T04:24:42.399Z,3.20
2023-05-02T04:27:45.188Z,3.10
2023-05-02T04:30:51.895Z,2.70
2023-05-02T04:33:57.460Z,3.22
2023-05-02T04:37:02.848Z,3.10
2023-05-02T04:40:08.358Z,3.00
2023-05-02T04:43:11.085Z,3.05
2023-05-02T04:46:25.197Z,2.65
2023-05-02T04:49:28.180Z,2.97
2023-05-02T04:52:31.483Z,3.07
2023-05-02T04:55:34.185Z,3.30
2023-05-02T04:58:37.102Z,3.20
2023-05-02T05:01:45.481Z,2.80
2023-05-02T05:04:48.378Z,3.10
2023-05-02T05:07:52.710Z,2.80
2023-05-02T05:10:57.982Z,3.00
2023-05-02T05:14:04.147Z,3.20
2023-05-02T05:17:09.102Z,2.85
2023-05-02T05:20:12.077Z,3.10
2023-05-02T05:23:16.135Z,3.00
2023-05-02T05:26:19.317Z,2.97
2023-05-02T05:29:24.200Z,3.05
2023-05-02T05:32:27.585Z,2.70
2023-05-02T05:35:34.270Z,2.95
2023-05-02T05:38:38.911Z,2.87
2023-05-02T05:41:43.304Z,2.67
2023-05-02T05:44:47.710Z,3.08
2023-05-02T05:47:55.304Z,2.83
2023-05-02T05:51:07.876Z,2.78
2023-05-02T05:54:11.869Z,2.83
2023-05-02T05:57:15.897Z,3.08
2023-05-02T06:00:34.380Z,2.80
2023-05-02T06:03:37.774Z,2.95
2023-05-02T06:06:43.110Z,2.83
2023-05-02T06:09:45.826Z,2.80
2023-05-02T06:12:49.802Z,2.80
2023-05-02T06:15:56.126Z,2.85
2023-05-02T06:19:01.061Z,3.13
2023-05-02T06:22:04.882Z,3.00
2023-05-02T06:25:10.011Z,3.00
2023-05-02T06:28:12.794Z,3.00
2023-05-02T06:31:16.526Z,3.03
2023-05-02T06:34:19.475Z,3.25
2023-05-02T06:37:21.998Z,2.85
2023-05-02T06:40:24.946Z,2.80
2023-05-02T06:43:28.410Z,2.83
2023-05-02T06:46:31.862Z,3.08
2023-05-02T06:49:35.956Z,3.30
2023-05-02T06:52:38.687Z,2.92
2023-05-02T06:55:41.497Z,3.13
2023-05-02T06:58:45.695Z,2.85
2023-05-02T07:01:49.715Z,3.20
2023-05-02T07:04:52.295Z,3.17
2023-05-02T07:07:56.107Z,3.20
2023-05-02T07:10:59.255Z,3.10
2023-05-02T07:14:01.979Z,3.17
2023-05-02T07:17:08.413Z,2.80
2023-05-02T07:20:12.206Z,2.97
2023-05-02T07:23:14.807Z,3.20
2023-05-02T07:26:19.053Z,2.90
2023-05-02T07:29:22.748Z,2.90
2023-05-02T07:32:26.770Z,2.67
2023-05-02T07:35:31.039Z,2.92
2023-05-02T07:38:34.073Z,3.13
2023-05-02T07:41:39.104Z,2.80
2023-05-02T07:44:45.574Z,2.80
2023-05-02T07:47:48.709Z,2.88
2023-05-02T07:50:51.465Z,3.00
2023-05-02T07:53:59.160Z,3.10
2023-05-02T07:57:03.737Z,2.90
2023-05-02T08:00:10.488Z,3.15
2023-05-02T08:03:16.394Z,3.03
2023-05-02T08:06:21.948Z,2.80
2023-05-02T08:09:25.387Z,2.72
2023-05-02T08:12:31.854Z,2.90
2023-05-02T08:15:35.222Z,2.65
2023-05-02T08:18:38.759Z,2.90
2023-05-02T08:21:43.476Z,3.00
2023-05-02T08:24:46.086Z,2.70
2023-05-02T08:27:49.991Z,3.00
2023-05-02T08:30:52.780Z,2.85
2023-05-02T08:33:56.470Z,2.80
2023-05-02T08:36:59.252Z,2.58
2023-05-02T08:40:02.545Z,2.60
2023-05-02T08:43:06.325Z,2.87
2023-05-02T08:46:11.228Z,2.70
2023-05-02T08:49:16.027Z,2.65
2023-05-02T08:52:20.339Z,2.60
2023-05-02T08:55:27.854Z,2.63
2023-05-02T08:58:33.797Z,2.63
2023-05-02T09:01:40.119Z,3.28
2023-05-02T09:04:46.446Z,2.83
2023-05-02T09:07:51.485Z,2.80
2023-05-02T09:10:54.343Z,3.00
2023-05-02T09:13:59.082Z,2.90
2023-05-02T09:17:02.682Z,2.80
2023-05-02T09:20:07.361Z,2.50
2023-05-02T09:23:10.862Z,2.80
2023-05-02T09:26:33.882Z,2.70
2023-05-02T09:29:38.037Z,2.60
2023-05-02T09:32:47.735Z,2.35
2023-05-02T09:35:56.724Z,2.55
2023-05-02T09:39:10.416Z,2.65
2023-05-02T09:42:13.030Z,3.00
2023-05-02T09:45:26.525Z,2.70
2023-05-02T09:48:31.382Z,2.40
2023-05-02T09:51:48.401Z,3.13
2023-05-02T09:54:56.476Z,2.65
2023-05-02T09:57:59.857Z,3.38
2023-05-02T10:01:02.796Z,3.20
2023-05-02T10:04:05.806Z,2.92
2023-05-02T10:07:10.810Z,2.90
2023-05-02T10:10:17.900Z,3.10
2023-05-02T10:13:22.751Z,2.70
2023-05-02T10:16:29.690Z,2.70
2023-05-02T10:20:00.277Z,3.10
2023-05-02T10:23:03.703Z,3.15
2023-05-02T10:26:07.135Z,2.63
2023-05-02T10:29:11.625Z,2.60
2023-05-02T10:32:17.451Z,2.70
2023-05-02T10:35:21.167Z,2.30
2023-05-02T10:38:24.929Z,2.58
2023-05-02T10:41:31.517Z,2.90
2023-05-02T10:44:41.021Z,2.35
2023-05-02T10:47:43.998Z,2.60
2023-05-02T10:50:48.152Z,2.25
2023-05-02T10:54:14.220Z,2.17
2023-05-02T10:57:16.777Z,2.30
2023-05-02T11:00:23.192Z,2.30
2023-05-02T11:04:00.958Z,2.60
2023-05-02T11:07:06.354Z,2.20
2023-05-02T11:10:18.635Z,2.20
2023-05-02T11:13:51.262Z,2.15
2023-05-02T11:17:05.558Z,2.03
2023-05-02T11:20:09.746Z,2.20
2023-05-02T11:23:15.527Z,2.25
2023-05-02T11:26:26.271Z,2.10
2023-05-02T11:30:01.829Z,2.40
2023-05-02T11:33:07.228Z,2.58
2023-05-02T11:36:11.598Z,2.20
2023-05-02T11:39:21.801Z,2.60
2023-05-02T11:42:32.436Z,2.70
2023-05-02T11:45:38.066Z,2.65
2023-05-02T11:48:41.908Z,2.17
2023-05-02T11:51:45.318Z,2.37
2023-05-02T11:54:56.350Z,2.30
2023-05-02T11:58:02.294Z,2.20
2023-05-02T12:01:16.186Z,2.47
2023-05-02T12:04:22.137Z,2.50
2023-05-02T12:07:36.549Z,2.17
2023-05-02T12:10:39.494Z,2.25
2023-05-02T12:13:47.923Z,2.35
2023-05-02T12:16:50.823Z,2.30
2023-05-02T12:19:53.872Z,2.20
2023-05-02T12:22:57.559Z,2.37
2023-05-02T12:26:00.600Z,2.10
2023-05-02T12:29:08.028Z,2.50
2023-05-02T12:32:11.803Z,2.10
2023-05-02T12:35:23.361Z,2.00
2023-05-02T12:38:26.331Z,2.60
2023-05-02T12:41:37.469Z,2.22
2023-05-02T12:44:42.128Z,2.67
2023-05-02T12:47:48.574Z,2.35
2023-05-02T12:50:51.922Z,2.10
2023-05-02T12:53:54.604Z,2.07
2023-05-02T12:56:57.843Z,2.13
2023-05-02T13:00:01.824Z,2.47
2023-05-02T13:03:05.465Z,2.00
2023-05-02T13:06:08.373Z,2.10
2023-05-02T13:09:11.197Z,2.03
2023-05-02T13:12:14.118Z,2.00
2023-05-02T13:15:16.807Z,1.70
2023-05-02T13:18:19.605Z,1.88
2023-05-02T13:21:22.890Z,2.30
2023-05-02T13:24:25.819Z,1.90
2023-05-02T13:27:28.755Z,2.00
2023-05-02T13:30:32.169Z,2.00
2023-05-02T13:33:34.829Z,2.13
2023-05-02T13:36:40.816Z,2.00
2023-05-02T13:39:43.377Z,1.90
2023-05-02T13:42:46.424Z,2.30
2023-05-02T13:45:49.212Z,2.53
2023-05-02T13:48:51.890Z,2.60
2023-05-02T13:51:55.144Z,2.33
2023-05-02T13:54:57.690Z,2.20
2023-05-02T13:58:00.257Z,2.60
2023-05-02T14:01:03.262Z,2.75
2023-05-02T14:04:09.106Z,2.10
2023-05-02T14:07:12.068Z,2.80
2023-05-02T14:10:14.776Z,2.17
2023-05-02T14:13:17.318Z,2.40
2023-05-02T14:16:19.980Z,2.60
2023-05-02T14:19:22.712Z,2.22
2023-05-02T14:22:25.525Z,2.20
2023-05-02T14:25:28.238Z,1.93
2023-05-02T14:28:31.436Z,2.42
2023-05-02T14:31:34.139Z,2.60
2023-05-02T14:34:36.898Z,2.30
2023-05-02T14:37:39.793Z,2.20
2023-05-02T14:40:42.537Z,2.07
2023-05-02T14:43:45.544Z,2.00
2023-05-02T14:46:48.254Z,2.08
2023-05-02T14:49:50.838Z,2.20
2023-05-02T14:52:53.688Z,2.10
2023-05-02T14:55:56.255Z,2.37
2023-05-02T14:58:59.356Z,2.08
2023-05-02T15:02:02.124Z,2.00
2023-05-02T15:05:12.330Z,2.05
2023-05-02T15:08:15.318Z,2.80
2023-05-02T15:11:18.431Z,1.90
2023-05-02T15:14:21.364Z,1.80
2023-05-02T15:17:24.176Z,5.63
2023-05-02T15:20:29.814Z,3.70
2023-05-02T15:23:32.600Z,3.80
2023-05-02T15:26:35.468Z,2.80
2023-05-02T15:29:38.778Z,3.45
2023-05-02T15:32:41.654Z,2.72
2023-05-02T15:35:53.955Z,2.83
2023-05-02T15:38:57.263Z,3.33
2023-05-02T15:42:04.843Z,3.53
2023-05-02T15:45:07.953Z,3.30
2023-05-02T15:48:10.609Z,3.10
2023-05-02T15:51:13.796Z,3.22
2023-05-02T15:54:16.931Z,3.22
2023-05-02T15:57:19.988Z,3.07
2023-05-02T16:00:22.624Z,3.80
2023-05-02T16:03:25.562Z,3.50
2023-05-02T16:06:28.316Z,3.60
2023-05-02T16:09:31.371Z,3.20
2023-05-02T16:12:33.997Z,3.17
2023-05-02T16:15:36.608Z,3.08
2023-05-02T16:18:39.321Z,3.65
2023-05-02T16:21:42.820Z,2.70
2023-05-02T16:24:46.026Z,3.28
2023-05-02T16:27:48.654Z,3.20
2023-05-02T16:30:51.469Z,3.30
2023-05-02T16:33:54.246Z,3.17
2023-05-02T16:36:57.234Z,3.25
2023-05-02T16:40:00.920Z,3.45
2023-05-02T16:43:04.227Z,2.47
2023-05-02T16:46:07.749Z,3.10
2023-05-02T16:49:10.626Z,2.85
2023-05-02T16:52:13.363Z,2.75
2023-05-02T16:55:16.709Z,2.90
2023-05-02T16:58:19.822Z,3.00
2023-05-02T17:01:25.594Z,2.90
2023-05-02T17:04:28.556Z,2.92
2023-05-02T17:07:31.237Z,2.90
2023-05-02T17:10:34.121Z,2.97
2023-05-02T17:13:37.052Z,3.07
2023-05-02T17:16:42.418Z,2.47
2023-05-02T17:19:45.745Z,3.10
2023-05-02T17:22:48.447Z,3.35
2023-05-02T17:25:51.715Z,2.90
2023-05-02T17:28:54.497Z,2.97
2023-05-02T17:32:00.155Z,2.78
2023-05-02T17:35:03.120Z,2.70
2023-05-02T17:38:05.919Z,2.60
2023-05-02T17:41:09.234Z,2.70
2023-05-02T17:44:11.851Z,2.70
2023-05-02T17:47:14.870Z,2.50
2023-05-02T17:50:18.357Z,2.75
2023-05-02T17:53:21.690Z,2.75
2023-05-02T17:56:24.954Z,2.78
2023-05-02T17:59:27.756Z,3.57
2023-05-02T18:02:31.233Z,2.60
2023-05-02T18:05:38.815Z,2.60
2023-05-02T18:08:41.472Z,2.70
2023-05-02T18:11:45.708Z,3.00
2023-05-02T18:14:49.292Z,3.27
2023-05-02T18:17:52.261Z,2.47
2023-05-02T18:20:56.286Z,2.75
2023-05-02T18:23:59.509Z,2.75
2023-05-02T18:27:03.679Z,2.97
2023-05-02T18:30:07.829Z,2.40
2023-05-02T18:33:11.168Z,2.45
2023-05-02T18:36:19.643Z,2.47
2023-05-02T18:39:22.890Z,2.72
2023-05-02T18:42:25.931Z,2.90
2023-05-02T18:45:30.294Z,2.60
2023-05-02T18:48:33.915Z,2.55
2023-05-02T18:51:37.221Z,2.40
2023-05-02T18:54:40.746Z,2.33
2023-05-02T18:57:44.918Z,2.78
2023-05-02T19:00:47.831Z,2.83
2023-05-02T19:03:53.231Z,2.42
2023-05-02T19:06:56.588Z,2.65
2023-05-02T19:09:59.669Z,2.90
2023-05-02T19:13:02.846Z,2.63
2023-05-02T19:16:10.198Z,2.60
2023-05-02T19:19:13.617Z,2.50
2023-05-02T19:22:16.719Z,3.17
2023-05-02T19:25:19.567Z,2.60
2023-05-02T19:28:23.316Z,2.83
2023-05-02T19:31:27.481Z,3.13
2023-05-02T19:34:31.459Z,2.58
2023-05-02T19:37:35.011Z,2.72
2023-05-02T19:40:38.649Z,2.45
2023-05-02T19:43:42.080Z,2.60
2023-05-02T19:46:45.844Z,2.80
2023-05-02T19:49:53.194Z,2.40
2023-05-02T19:52:56.867Z,2.60
2023-05-02T19:56:04.033Z,2.80
2023-05-02T19:59:08.122Z,2.50
2023-05-02T20:02:12.075Z,2.60
2023-05-02T20:05:15.553Z,2.70
2023-05-02T20:08:19.062Z,2.85
2023-05-02T20:11:22.350Z,2.40
2023-05-02T20:14:25.978Z,2.65
2023-05-02T20:17:29.488Z,2.60
2023-05-02T20:20:32.379Z,2.70
2023-05-02T20:23:35.443Z,2.50
2023-05-02T20:26:38.232Z,2.53
2023-05-02T20:29:40.977Z,2.67
2023-05-02T20:32:43.780Z,2.73
2023-05-02T20:35:54.459Z,2.67
2023-05-02T20:38:57.892Z,2.40
2023-05-02T20:42:00.631Z,2.70
2023-05-02T20:45:05.597Z,2.53
2023-05-02T20:48:08.284Z,2.30
2023-05-02T20:51:12.130Z,2.58
2023-05-02T20:54:14.784Z,2.30
2023-05-02T20:57:17.668Z,2.05
2023-05-02T21:00:22.531Z,2.65
2023-05-02T21:03:27.838Z,2.10
2023-05-02T21:06:31.575Z,2.35
2023-05-02T21:09:34.704Z,2.50
2023-05-02T21:12:37.347Z,2.33
2023-05-02T21:15:40.612Z,2.60
2023-05-02T21:18:43.547Z,2.37
2023-05-02T21:21:47.681Z,2.45
2023-05-02T21:24:51.169Z,2.50
2023-05-02T21:27:53.904Z,2.38
2023-05-02T21:30:56.605Z,2.90
2023-05-02T21:34:00.142Z,2.00
2023-05-02T21:37:02.839Z,2.15
2023-05-02T21:40:06.826Z,2.40
2023-05-02T21:43:09.668Z,2.20
2023-05-02T21:46:13.692Z,2.40
2023-05-02T21:49:16.278Z,2.33
2023-05-02T21:52:18.899Z,2.50
2023-05-02T21:55:21.430Z,2.97
2023-05-02T21:58:24.279Z,2.20
2023-05-02T22:01:27.102Z,2.38
2023-05-02T22:04:29.748Z,2.20
2023-05-02T22:07:32.540Z,2.28
2023-05-02T22:10:38.054Z,2.30
2023-05-02T22:13:40.743Z,2.53
2023-05-02T22:16:43.456Z,2.53
2023-05-02T22:19:50.294Z,2.40
2023-05-02T22:22:53.221Z,2.58
2023-05-02T22:25:57.295Z,2.50
2023-05-02T22:28:59.827Z,2.55
2023-05-02T22:32:03.055Z,2.30
2023-05-02T22:35:07.297Z,2.13
2023-05-02T22:38:16.619Z,2.33
2023-05-02T22:41:19.290Z,2.20
2023-05-02T22:44:21.929Z,2.33
2023-05-02T22:47:25.300Z,2.13
2023-05-02T22:50:27.873Z,2.17
2023-05-02T22:53:31.432Z,2.20
2023-05-02T22:56:34.594Z,2.70
2023-05-02T22:59:37.421Z,2.35
2023-05-02T23:02:40.312Z,2.13
2023-05-02T23:05:43.138Z,2.20
2023-05-02T23:08:45.884Z,2.35
2023-05-02T23:11:48.501Z,1.73
2023-05-02T23:14:51.211Z,2.10
2023-05-02T23:17:53.834Z,2.53
2023-05-02T23:20:56.534Z,2.03
2023-05-02T23:23:59.060Z,2.20
2023-05-02T23:27:01.648Z,1.83
2023-05-02T23:30:04.925Z,1.95
2023-05-02T23:33:07.990Z,2.55
2023-05-02T23:36:13.093Z,2.10
2023-05-02T23:39:15.763Z,2.33
2023-05-02T23:42:18.557Z,2.17
2023-05-02T23:45:21.322Z,2.25
2023-05-02T23:48:23.875Z,1.98
2023-05-02T23:51:27.809Z,2.10
2023-05-02T23:54:32.039Z,2.03
2023-05-02T23:57:37.371Z,1.95
